Accueil
METAR-TAF:

METAR-TAF

Aéroports :

Charleroi, Belgique

Aéroport de Charleroi-Bruxelles-Sud

latitude: 50-28N, longitude: 004-27E, altitude: 187 m

Observation

Le bulletin a été fait il y a 17 minutes, à 06:20 UTC
Vent 7 kt de ouest/sud-ouest
Température 15°C
Humidité 88%
Pression 1018 hPa
Visibilité 10 km ou plus
Nuages épars à une hauteur de 500 ft
Nuages fragmentés à une hauteur de 600 ft

METAR: EBCI 240620Z 24007KT 9999 SCT005 BKN006 15/13 Q1018 NOSIG

Heure: 08:37 (06:37 UTC)

Prévision

Le bulletin a été fait il y a 1 heure et 27 minutes, à 05:10 UTC
Prévision valable du 24 à 06 UTC au 25 à 12 UTC
Vent 7 kt de ouest/sud-ouest
Visibilité 10 km ou plus
Nuages fragmentés à une hauteur de 500 ft
Evoluant progressivement
du 24 à 06 UTC au 24 à 08 UTC
Nuages épars à une hauteur de 1200 ft

TAF: EBCI 240510Z 2406/2512 25007KT 9999 BKN005 BECMG 2406/2408 SCT012

Observations et prévisions météorologiques de plus de 4000 aéroports (messages METAR et TAF).

Les stations disponibles sont représentées par des disques jaunes et rouges sur la carte.

Passer la souris dessus pour voir le nom de la station.

Cliquer dessus pour voir les observations et prévisions météorologiques.

Pour changer de carte: cliquez sur les boutons verts avec une croix noire pour zoomer, sur le bouton vert avec un tiret pour effectuer un zoom arrière, ou sur les flèches vertes pour les cartes adjacentes.


METAR-TAF: